createdAt,value
2022-09-24T00:04:12.086Z,6.17
2022-09-24T00:09:16.386Z,6.73
2022-09-24T00:14:18.909Z,6.67
2022-09-24T00:19:20.570Z,6.67
2022-09-24T00:24:41.191Z,6.10
2022-09-24T00:29:42.818Z,7.30
2022-09-24T00:34:44.489Z,8.47
2022-09-24T00:39:46.432Z,6.63
2022-09-24T00:44:54.174Z,7.60
2022-09-24T00:50:18.477Z,7.97
2022-09-24T00:55:22.078Z,7.83
2022-09-24T01:00:24.132Z,8.57
2022-09-24T01:05:25.841Z,7.53
2022-09-24T01:10:51.026Z,7.53
2022-09-24T01:16:04.835Z,6.93
2022-09-24T01:21:15.528Z,7.60
2022-09-24T01:26:32.321Z,7.50
2022-09-24T01:31:46.992Z,8.13
2022-09-24T01:36:50.099Z,8.37
2022-09-24T01:41:52.135Z,7.23
2022-09-24T01:46:54.347Z,6.97
2022-09-24T01:51:59.467Z,7.63
2022-09-24T01:57:09.840Z,7.37
2022-09-24T02:02:36.133Z,6.87
2022-09-24T02:07:45.340Z,7.13
2022-09-24T02:12:52.531Z,7.67
2022-09-24T02:17:58.101Z,7.50
2022-09-24T02:22:59.913Z,8.63
2022-09-24T02:28:03.232Z,8.53
2022-09-24T02:33:27.505Z,8.37
2022-09-24T02:38:29.254Z,6.93
2022-09-24T02:43:30.897Z,7.40
2022-09-24T02:48:32.638Z,8.93
2022-09-24T02:53:34.679Z,6.93
2022-09-24T02:58:37.426Z,7.47
2022-09-24T03:03:39.106Z,8.27
2022-09-24T03:08:44.704Z,8.67
2022-09-24T03:13:46.658Z,10.67
2022-09-24T03:18:48.494Z,8.13
2022-09-24T03:23:50.439Z,9.50
2022-09-24T03:28:52.243Z,10.10
2022-09-24T03:33:54.481Z,9.80
2022-09-24T03:38:57.593Z,9.63
2022-09-24T03:43:59.351Z,11.13
2022-09-24T03:49:01.013Z,12.17
2022-09-24T03:54:02.792Z,12.13
2022-09-24T03:59:04.423Z,11.90
2022-09-24T04:04:06.169Z,11.10
2022-09-24T04:09:08.003Z,10.40
2022-09-24T04:14:10.040Z,10.43
2022-09-24T04:19:12.849Z,11.20
2022-09-24T04:24:14.623Z,12.17
2022-09-24T04:29:16.754Z,11.70
2022-09-24T04:34:18.453Z,13.03
2022-09-24T04:39:22.418Z,12.50
2022-09-24T04:44:24.167Z,12.10
2022-09-24T04:49:25.970Z,12.50
2022-09-24T04:54:30.686Z,12.47
2022-09-24T04:59:32.472Z,12.97
2022-09-24T05:10:09.502Z,15.57
2022-09-24T05:15:16.646Z,16.77
2022-09-24T05:20:18.525Z,16.70
2022-09-24T05:25:21.749Z,14.47
2022-09-24T05:30:25.082Z,16.40
2022-09-24T05:35:26.821Z,18.07
2022-09-24T05:40:52.180Z,18.63
2022-09-24T05:46:08.619Z,16.77
2022-09-24T05:51:26.711Z,18.17
2022-09-24T05:56:28.577Z,19.33
2022-09-24T06:01:42.222Z,20.97
2022-09-24T06:06:46.370Z,22.23
2022-09-24T06:11:51.021Z,21.57
2022-09-24T06:17:39.554Z,20.70
2022-09-24T06:23:02.554Z,23.57
2022-09-24T06:28:05.166Z,23.53
2022-09-24T06:39:16.382Z,23.87
2022-09-24T06:44:23.399Z,22.77
2022-09-24T06:55:19.528Z,26.00
2022-09-24T07:06:00.424Z,25.73
2022-09-24T07:11:02.646Z,26.03
2022-09-24T07:16:04.518Z,26.00
2022-09-24T07:21:29.967Z,29.57
2022-09-24T07:26:52.533Z,27.70
2022-09-24T07:32:30.106Z,27.07
2022-09-24T07:38:53.092Z,26.07
2022-09-24T07:44:17.633Z,28.37
2022-09-24T08:00:13.035Z,30.20
2022-09-24T08:05:16.671Z,31.03
2022-09-24T08:16:08.380Z,31.33
2022-09-24T08:22:05.424Z,33.77
2022-09-24T08:27:28.045Z,30.90
2022-09-24T08:32:30.106Z,27.43
2022-09-24T08:37:34.193Z,28.90
2022-09-24T08:43:10.747Z,30.93
2022-09-24T08:48:21.011Z,29.30
2022-09-24T08:53:31.608Z,27.30
2022-09-24T08:58:54.786Z,27.53
2022-09-24T09:04:05.401Z,29.97
2022-09-24T09:09:16.932Z,25.70
2022-09-24T09:14:49.481Z,26.37
2022-09-24T09:19:58.988Z,25.30
2022-09-24T09:25:11.410Z,27.73
2022-09-24T09:30:15.008Z,30.90
2022-09-24T09:35:29.143Z,30.90
2022-09-24T09:40:48.869Z,27.13
2022-09-24T09:45:56.848Z,24.23
2022-09-24T09:51:24.186Z,23.30
2022-09-24T09:56:48.515Z,23.60
2022-09-24T10:02:03.760Z,23.77
2022-09-24T10:13:21.653Z,20.60
2022-09-24T10:19:29.795Z,20.80
2022-09-24T10:24:33.990Z,19.20
2022-09-24T10:48:50.818Z,18.30
2022-09-24T10:54:11.401Z,17.70
2022-09-24T10:59:43.216Z,17.90
2022-09-24T11:04:59.395Z,19.53
2022-09-24T11:10:40.665Z,17.23
2022-09-24T11:15:58.806Z,18.03
2022-09-24T11:21:03.233Z,16.87
2022-09-24T11:26:08.001Z,16.10
2022-09-24T11:31:30.821Z,14.33
2022-09-24T11:36:51.614Z,15.33
2022-09-24T11:42:21.822Z,15.70
2022-09-24T11:47:46.207Z,16.50
2022-09-24T11:52:50.540Z,19.30
2022-09-24T11:58:16.652Z,20.80
2022-09-24T12:03:26.404Z,21.13
2022-09-24T12:08:47.419Z,21.43
2022-09-24T12:14:29.871Z,19.93
2022-09-24T12:19:42.233Z,22.83
2022-09-24T12:24:52.007Z,24.03
2022-09-24T12:30:41.939Z,22.80
2022-09-24T12:36:04.637Z,21.10
2022-09-24T12:41:25.698Z,19.97
2022-09-24T12:46:51.889Z,16.83
2022-09-24T12:52:02.027Z,15.47
2022-09-24T12:57:14.366Z,12.27
2022-09-24T13:02:24.673Z,14.10
2022-09-24T13:07:33.782Z,13.10
2022-09-24T13:12:36.057Z,13.20
2022-09-24T13:17:40.496Z,11.60
2022-09-24T13:22:42.236Z,16.13
2022-09-24T13:27:45.212Z,14.63
2022-09-24T13:32:58.678Z,12.03
2022-09-24T13:38:27.481Z,11.60
2022-09-24T13:43:39.738Z,11.33
2022-09-24T13:48:51.365Z,10.77
2022-09-24T13:54:07.019Z,11.57
2022-09-24T13:59:13.151Z,9.77
2022-09-24T14:04:17.809Z,10.87
2022-09-24T14:09:33.816Z,10.80
2022-09-24T14:14:35.974Z,10.73
2022-09-24T14:19:37.794Z,9.40
2022-09-24T14:25:08.558Z,9.63
2022-09-24T14:30:24.387Z,11.30
2022-09-24T14:35:33.877Z,14.33
2022-09-24T14:40:44.141Z,10.27
2022-09-24T14:45:46.981Z,10.87
2022-09-24T14:50:48.699Z,9.87
2022-09-24T14:55:50.582Z,11.60
2022-09-24T15:01:19.664Z,11.00
2022-09-24T15:06:32.462Z,10.03
2022-09-24T15:11:43.561Z,10.73
2022-09-24T15:16:47.816Z,9.90
2022-09-24T15:21:54.635Z,9.23
2022-09-24T15:27:05.945Z,10.13
2022-09-24T15:32:18.832Z,8.90
2022-09-24T15:37:29.716Z,10.67
2022-09-24T15:47:57.327Z,10.40
2022-09-24T15:53:00.338Z,9.93
2022-09-24T15:58:02.202Z,9.30
2022-09-24T16:03:04.185Z,9.83
2022-09-24T16:08:05.931Z,8.33
2022-09-24T16:13:08.096Z,9.10
2022-09-24T16:18:13.636Z,8.77
2022-09-24T16:23:16.420Z,10.17
2022-09-24T16:28:18.124Z,9.93
2022-09-24T16:33:21.144Z,8.57
2022-09-24T16:38:23.435Z,10.10
2022-09-24T16:43:25.203Z,9.90
2022-09-24T16:48:26.857Z,8.67
2022-09-24T16:53:28.665Z,9.87
2022-09-24T16:58:32.238Z,10.13
2022-09-24T17:03:34.288Z,9.67
2022-09-24T17:08:55.028Z,11.57
2022-09-24T17:13:58.552Z,9.70
2022-09-24T17:19:02.637Z,9.77
2022-09-24T17:24:05.759Z,9.53
2022-09-24T17:29:07.665Z,9.67
2022-09-24T17:34:15.260Z,9.67
2022-09-24T17:39:19.721Z,10.33
2022-09-24T17:44:21.539Z,10.67
2022-09-24T17:49:30.089Z,9.47
2022-09-24T17:54:31.918Z,10.23
2022-09-24T17:59:33.590Z,8.50
2022-09-24T18:04:38.208Z,9.87
2022-09-24T18:09:40.037Z,10.67
2022-09-24T18:14:41.974Z,10.93
2022-09-24T18:19:43.687Z,11.27
2022-09-24T18:24:47.479Z,12.07
2022-09-24T18:29:49.230Z,11.73
2022-09-24T18:34:50.881Z,11.93
2022-09-24T18:39:52.645Z,14.23
2022-09-24T18:44:54.383Z,12.80
2022-09-24T18:49:56.116Z,12.30
2022-09-24T18:54:58.003Z,12.20
2022-09-24T18:59:59.691Z,12.73
2022-09-24T19:05:01.667Z,12.40
2022-09-24T19:10:03.373Z,12.17
2022-09-24T19:15:05.952Z,11.67
2022-09-24T19:20:08.205Z,9.90
2022-09-24T19:25:10.169Z,8.97
2022-09-24T19:30:12.502Z,9.57
2022-09-24T19:35:14.326Z,9.70
2022-09-24T19:40:16.328Z,9.10
2022-09-24T19:45:18.259Z,10.33
2022-09-24T19:50:23.963Z,10.43
2022-09-24T19:55:28.665Z,9.83
2022-09-24T20:00:30.520Z,9.80
2022-09-24T20:05:32.301Z,11.30
2022-09-24T20:16:07.149Z,11.17
2022-09-24T20:21:15.562Z,11.57
2022-09-24T20:26:39.195Z,13.10
2022-09-24T20:31:54.540Z,11.23
2022-09-24T20:37:00.859Z,20.93
2022-09-24T20:42:03.789Z,11.53
2022-09-24T20:47:05.568Z,12.23
2022-09-24T20:52:07.769Z,12.50
2022-09-24T20:57:09.605Z,12.53
2022-09-24T21:02:12.111Z,12.70
2022-09-24T21:07:13.839Z,12.13
2022-09-24T21:12:15.494Z,12.10
2022-09-24T21:17:18.526Z,13.13
2022-09-24T21:22:21.047Z,13.43
2022-09-24T21:27:22.676Z,13.33
2022-09-24T21:32:24.346Z,16.87
2022-09-24T21:37:27.059Z,16.10
2022-09-24T21:42:32.065Z,14.60
2022-09-24T21:47:33.767Z,14.03
2022-09-24T21:52:35.406Z,16.67
2022-09-24T21:57:37.021Z,15.63
2022-09-24T22:02:43.280Z,16.27
2022-09-24T22:07:46.537Z,15.27
2022-09-24T22:12:48.191Z,14.57
2022-09-24T22:17:50.746Z,15.07
2022-09-24T22:22:52.445Z,13.80
2022-09-24T22:27:54.646Z,13.97
2022-09-24T22:32:56.676Z,16.53
2022-09-24T22:37:58.522Z,16.47
2022-09-24T22:43:00.148Z,17.33
2022-09-24T22:48:03.157Z,17.93
2022-09-24T22:53:04.860Z,17.07
2022-09-24T22:58:06.746Z,17.83
2022-09-24T23:03:08.448Z,18.67
2022-09-24T23:08:10.071Z,19.13
2022-09-24T23:13:11.753Z,19.47
2022-09-24T23:18:13.557Z,20.00
2022-09-24T23:23:15.340Z,19.93
2022-09-24T23:28:16.989Z,19.57
2022-09-24T23:33:37.546Z,19.20
2022-09-24T23:38:40.307Z,21.40
2022-09-24T23:43:42.588Z,20.53
2022-09-24T23:48:44.760Z,21.90
2022-09-24T23:53:46.964Z,20.03
2022-09-24T23:58:48.760Z,20.87
